sensor_id;sensor_type;location;lat;lon;timestamp;pressure;altitude;pressure_sealevel;temperature;humidity
59417;BME280;45222;52.458;20.914;2023-01-16T00:00:11;99558.73;;;3.36;87.83
59417;BME280;45222;52.458;20.914;2023-01-16T00:04:19;99555.34;;;3.32;87.80
59417;BME280;45222;52.458;20.914;2023-01-16T00:08:07;99554.92;;;3.29;87.95
59417;BME280;45222;52.458;20.914;2023-01-16T00:11:55;99550.03;;;3.28;88.08
59417;BME280;45222;52.458;20.914;2023-01-16T00:15:46;99550.51;;;3.24;87.99
59417;BME280;45222;52.458;20.914;2023-01-16T00:19:35;99554.00;;;3.19;87.88
59417;BME280;45222;52.458;20.914;2023-01-16T00:23:23;99548.48;;;3.16;87.88
59417;BME280;45222;52.458;20.914;2023-01-16T00:27:11;99554.13;;;3.15;88.03
59417;BME280;45222;52.458;20.914;2023-01-16T00:30:59;99558.77;;;3.12;88.08
59417;BME280;45222;52.458;20.914;2023-01-16T00:34:47;99561.75;;;3.07;88.02
59417;BME280;45222;52.458;20.914;2023-01-16T00:38:34;99556.63;;;3.02;87.89
59417;BME280;45222;52.458;20.914;2023-01-16T00:42:22;99558.07;;;3.01;87.88
59417;BME280;45222;52.458;20.914;2023-01-16T00:46:10;99559.10;;;3.02;87.96
59417;BME280;45222;52.458;20.914;2023-01-16T00:49:58;99556.29;;;3.02;87.94
59417;BME280;45222;52.458;20.914;2023-01-16T00:53:47;99555.84;;;3.00;87.84
59417;BME280;45222;52.458;20.914;2023-01-16T00:57:35;99555.95;;;2.96;87.80
59417;BME280;45222;52.458;20.914;2023-01-16T01:01:22;99556.89;;;2.94;87.80
59417;BME280;45222;52.458;20.914;2023-01-16T01:05:11;99555.65;;;2.93;87.79
59417;BME280;45222;52.458;20.914;2023-01-16T01:08:59;99556.55;;;2.93;87.93
59417;BME280;45222;52.458;20.914;2023-01-16T01:12:46;99562.60;;;2.91;87.83
59417;BME280;45222;52.458;20.914;2023-01-16T01:16:34;99563.27;;;2.86;87.68
59417;BME280;45222;52.458;20.914;2023-01-16T01:20:22;99569.57;;;2.80;87.62
59417;BME280;45222;52.458;20.914;2023-01-16T01:24:10;99570.19;;;2.77;87.46
59417;BME280;45222;52.458;20.914;2023-01-16T01:27:58;99569.52;;;2.76;87.62
59417;BME280;45222;52.458;20.914;2023-01-16T01:31:46;99564.48;;;2.75;87.81
59417;BME280;45222;52.458;20.914;2023-01-16T01:35:34;99566.54;;;2.71;87.90
59417;BME280;45222;52.458;20.914;2023-01-16T01:39:22;99567.02;;;2.65;87.81
59417;BME280;45222;52.458;20.914;2023-01-16T01:43:14;99569.49;;;2.59;87.87
59417;BME280;45222;52.458;20.914;2023-01-16T01:47:02;99571.73;;;2.54;87.82
59417;BME280;45222;52.458;20.914;2023-01-16T01:50:52;99565.52;;;2.50;87.95
59417;BME280;45222;52.458;20.914;2023-01-16T01:54:45;99563.26;;;2.50;88.10
59417;BME280;45222;52.458;20.914;2023-01-16T01:58:33;99557.55;;;2.47;88.24
59417;BME280;45222;52.458;20.914;2023-01-16T02:02:25;99556.02;;;2.45;88.20
59417;BME280;45222;52.458;20.914;2023-01-16T02:06:17;99553.51;;;2.41;88.24
59417;BME280;45222;52.458;20.914;2023-01-16T02:10:12;99549.51;;;2.33;88.09
59417;BME280;45222;52.458;20.914;2023-01-16T02:14:04;99542.63;;;2.28;88.07
59417;BME280;45222;52.458;20.914;2023-01-16T02:17:54;99542.58;;;2.23;88.32
59417;BME280;45222;52.458;20.914;2023-01-16T02:22:26;99534.26;;;2.20;88.46
59417;BME280;45222;52.458;20.914;2023-01-16T02:31:05;99532.16;;;2.20;88.58
59417;BME280;45222;52.458;20.914;2023-01-16T02:35:13;99534.91;;;2.15;88.32
59417;BME280;45222;52.458;20.914;2023-01-16T02:39:09;99531.23;;;2.02;88.28
59417;BME280;45222;52.458;20.914;2023-01-16T02:43:08;99530.04;;;1.94;88.07
59417;BME280;45222;52.458;20.914;2023-01-16T02:47:10;99530.80;;;1.85;88.30
59417;BME280;45222;52.458;20.914;2023-01-16T02:51:06;99524.70;;;1.84;88.47
59417;BME280;45222;52.458;20.914;2023-01-16T02:55:03;99529.02;;;1.86;88.73
59417;BME280;45222;52.458;20.914;2023-01-16T02:58:54;99533.17;;;1.88;88.66
59417;BME280;45222;52.458;20.914;2023-01-16T03:02:43;99532.68;;;1.87;88.40
59417;BME280;45222;52.458;20.914;2023-01-16T03:06:42;99533.10;;;1.77;88.20
59417;BME280;45222;52.458;20.914;2023-01-16T03:10:42;99536.54;;;1.67;88.09
59417;BME280;45222;52.458;20.914;2023-01-16T03:14:37;99540.98;;;1.56;87.85
59417;BME280;45222;52.458;20.914;2023-01-16T03:18:37;99543.24;;;1.50;87.91
59417;BME280;45222;52.458;20.914;2023-01-16T03:22:33;99545.80;;;1.47;88.07
59417;BME280;45222;52.458;20.914;2023-01-16T03:26:28;99536.84;;;1.47;88.22
59417;BME280;45222;52.458;20.914;2023-01-16T03:30:22;99538.77;;;1.47;88.47
59417;BME280;45222;52.458;20.914;2023-01-16T03:34:20;99536.80;;;1.49;88.43
59417;BME280;45222;52.458;20.914;2023-01-16T03:38:14;99539.50;;;1.46;88.14
59417;BME280;45222;52.458;20.914;2023-01-16T03:42:10;99541.27;;;1.38;88.12
59417;BME280;45222;52.458;20.914;2023-01-16T03:46:03;99540.73;;;1.30;88.00
59417;BME280;45222;52.458;20.914;2023-01-16T03:49:56;99538.95;;;1.24;87.80
59417;BME280;45222;52.458;20.914;2023-01-16T03:53:50;99541.84;;;1.21;87.97
59417;BME280;45222;52.458;20.914;2023-01-16T03:57:41;99541.31;;;1.21;88.05
59417;BME280;45222;52.458;20.914;2023-01-16T04:01:38;99537.15;;;1.19;88.17
59417;BME280;45222;52.458;20.914;2023-01-16T04:05:34;99539.70;;;1.23;88.47
59417;BME280;45222;52.458;20.914;2023-01-16T04:09:30;99540.63;;;1.28;88.44
59417;BME280;45222;52.458;20.914;2023-01-16T04:13:25;99536.93;;;1.29;88.26
59417;BME280;45222;52.458;20.914;2023-01-16T04:17:13;99536.87;;;1.24;88.10
59417;BME280;45222;52.458;20.914;2023-01-16T04:21:05;99537.84;;;1.20;87.87
59417;BME280;45222;52.458;20.914;2023-01-16T04:24:56;99541.77;;;1.16;87.79
59417;BME280;45222;52.458;20.914;2023-01-16T04:28:44;99541.50;;;1.13;88.00
59417;BME280;45222;52.458;20.914;2023-01-16T04:32:32;99544.41;;;1.16;88.16
59417;BME280;45222;52.458;20.914;2023-01-16T04:36:20;99545.38;;;1.12;88.16
59417;BME280;45222;52.458;20.914;2023-01-16T04:40:10;99542.56;;;1.12;88.17
59417;BME280;45222;52.458;20.914;2023-01-16T04:43:58;99541.26;;;1.09;87.96
59417;BME280;45222;52.458;20.914;2023-01-16T04:47:48;99543.58;;;1.06;88.04
59417;BME280;45222;52.458;20.914;2023-01-16T04:51:37;99547.42;;;1.06;88.34
59417;BME280;45222;52.458;20.914;2023-01-16T04:55:24;99547.22;;;1.08;88.42
59417;BME280;45222;52.458;20.914;2023-01-16T04:59:12;99549.65;;;1.08;88.37
59417;BME280;45222;52.458;20.914;2023-01-16T05:03:02;99552.70;;;1.05;88.55
59417;BME280;45222;52.458;20.914;2023-01-16T05:06:50;99552.06;;;1.03;88.13
59417;BME280;45222;52.458;20.914;2023-01-16T05:10:38;99550.41;;;0.99;88.05
59417;BME280;45222;52.458;20.914;2023-01-16T05:14:26;99552.45;;;0.93;88.14
59417;BME280;45222;52.458;20.914;2023-01-16T05:18:13;99551.23;;;0.92;88.44
59417;BME280;45222;52.458;20.914;2023-01-16T05:22:01;99562.48;;;0.91;88.61
59417;BME280;45222;52.458;20.914;2023-01-16T05:25:50;99566.55;;;0.89;88.47
59417;BME280;45222;52.458;20.914;2023-01-16T05:29:40;99561.88;;;0.86;88.48
59417;BME280;45222;52.458;20.914;2023-01-16T05:33:28;99555.18;;;0.81;88.41
59417;BME280;45222;52.458;20.914;2023-01-16T05:37:15;99551.73;;;0.78;88.55
59417;BME280;45222;52.458;20.914;2023-01-16T05:41:04;99542.89;;;0.82;88.77
59417;BME280;45222;52.458;20.914;2023-01-16T05:44:52;99534.96;;;0.85;88.84
59417;BME280;45222;52.458;20.914;2023-01-16T05:48:40;99528.20;;;0.82;88.84
59417;BME280;45222;52.458;20.914;2023-01-16T05:52:28;99527.75;;;0.78;88.64
59417;BME280;45222;52.458;20.914;2023-01-16T05:56:17;99526.35;;;0.78;88.43
59417;BME280;45222;52.458;20.914;2023-01-16T06:00:09;99532.23;;;0.73;88.49
59417;BME280;45222;52.458;20.914;2023-01-16T06:03:57;99533.92;;;0.76;88.71
59417;BME280;45222;52.458;20.914;2023-01-16T06:07:45;99527.48;;;0.75;88.88
59417;BME280;45222;52.458;20.914;2023-01-16T06:11:32;99529.00;;;0.77;88.70
59417;BME280;45222;52.458;20.914;2023-01-16T06:15:21;99531.14;;;0.75;88.32
59417;BME280;45222;52.458;20.914;2023-01-16T06:19:09;99528.25;;;0.71;88.27
59417;BME280;45222;52.458;20.914;2023-01-16T06:22:57;99523.98;;;0.66;88.44
59417;BME280;45222;52.458;20.914;2023-01-16T06:26:44;99526.65;;;0.72;88.88
59417;BME280;45222;52.458;20.914;2023-01-16T06:30:32;99526.73;;;0.76;88.82
59417;BME280;45222;52.458;20.914;2023-01-16T06:34:20;99528.74;;;0.81;88.73
59417;BME280;45222;52.458;20.914;2023-01-16T06:38:08;99532.59;;;0.81;88.21
59417;BME280;45222;52.458;20.914;2023-01-16T06:41:56;99536.58;;;0.75;88.14
59417;BME280;45222;52.458;20.914;2023-01-16T06:45:44;99537.96;;;0.75;88.24
59417;BME280;45222;52.458;20.914;2023-01-16T06:49:32;99536.34;;;0.78;88.48
59417;BME280;45222;52.458;20.914;2023-01-16T06:53:20;99528.93;;;0.81;88.48
59417;BME280;45222;52.458;20.914;2023-01-16T06:57:08;99532.58;;;0.82;88.40
59417;BME280;45222;52.458;20.914;2023-01-16T07:00:56;99533.27;;;0.82;88.34
59417;BME280;45222;52.458;20.914;2023-01-16T07:04:44;99533.29;;;0.81;88.42
59417;BME280;45222;52.458;20.914;2023-01-16T07:08:32;99538.06;;;0.88;88.46
59417;BME280;45222;52.458;20.914;2023-01-16T07:12:20;99539.32;;;0.94;88.54
59417;BME280;45222;52.458;20.914;2023-01-16T07:16:10;99539.25;;;0.96;88.56
59417;BME280;45222;52.458;20.914;2023-01-16T07:20:16;99538.46;;;1.01;88.35
59417;BME280;45222;52.458;20.914;2023-01-16T07:24:24;99531.44;;;1.01;88.09
59417;BME280;45222;52.458;20.914;2023-01-16T07:28:15;99520.95;;;1.00;88.16
59417;BME280;45222;52.458;20.914;2023-01-16T07:32:05;99514.89;;;1.05;88.22
59417;BME280;45222;52.458;20.914;2023-01-16T07:35:53;99515.28;;;1.11;88.40
59417;BME280;45222;52.458;20.914;2023-01-16T07:39:41;99515.05;;;1.13;88.08
59417;BME280;45222;52.458;20.914;2023-01-16T07:43:28;99513.42;;;1.16;88.20
59417;BME280;45222;52.458;20.914;2023-01-16T07:47:16;99512.59;;;1.21;87.90
59417;BME280;45222;52.458;20.914;2023-01-16T07:51:04;99508.63;;;1.25;87.70
59417;BME280;45222;52.458;20.914;2023-01-16T07:54:52;99508.57;;;1.28;87.86
59417;BME280;45222;52.458;20.914;2023-01-16T07:58:40;99512.70;;;1.39;87.87
59417;BME280;45222;52.458;20.914;2023-01-16T08:02:29;99512.82;;;1.48;87.93
59417;BME280;45222;52.458;20.914;2023-01-16T08:06:17;99514.69;;;1.57;87.41
59417;BME280;45222;52.458;20.914;2023-01-16T08:10:06;99518.20;;;1.57;87.15
59417;BME280;45222;52.458;20.914;2023-01-16T08:13:54;99517.80;;;1.59;86.83
59417;BME280;45222;52.458;20.914;2023-01-16T08:17:42;99513.46;;;1.64;86.81
59417;BME280;45222;52.458;20.914;2023-01-16T08:21:30;99514.66;;;1.72;86.79
59417;BME280;45222;52.458;20.914;2023-01-16T08:25:19;99517.82;;;1.79;86.87
59417;BME280;45222;52.458;20.914;2023-01-16T08:29:07;99517.02;;;1.89;86.87
59417;BME280;45222;52.458;20.914;2023-01-16T08:32:59;99508.83;;;1.94;86.34
59417;BME280;45222;52.458;20.914;2023-01-16T08:36:47;99509.02;;;1.93;86.08
59417;BME280;45222;52.458;20.914;2023-01-16T08:40:35;99508.21;;;1.90;85.90
59417;BME280;45222;52.458;20.914;2023-01-16T08:44:23;99496.54;;;1.88;85.84
59417;BME280;45222;52.458;20.914;2023-01-16T08:48:29;99500.86;;;1.90;85.76
59417;BME280;45222;52.458;20.914;2023-01-16T08:52:35;99499.14;;;1.96;85.74
59417;BME280;45222;52.458;20.914;2023-01-16T08:56:23;99498.33;;;2.06;85.92
59417;BME280;45222;52.458;20.914;2023-01-16T09:00:13;99491.33;;;2.18;86.09
59417;BME280;45222;52.458;20.914;2023-01-16T09:04:01;99490.48;;;2.30;85.95
59417;BME280;45222;52.458;20.914;2023-01-16T09:07:48;99484.89;;;2.35;85.70
59417;BME280;45222;52.458;20.914;2023-01-16T09:11:37;99479.80;;;2.40;85.43
59417;BME280;45222;52.458;20.914;2023-01-16T09:15:42;99477.41;;;2.45;84.99
59417;BME280;45222;52.458;20.914;2023-01-16T09:19:30;99468.39;;;2.52;85.00
59417;BME280;45222;52.458;20.914;2023-01-16T09:23:18;99460.73;;;2.62;84.84
59417;BME280;45222;52.458;20.914;2023-01-16T09:27:06;99460.08;;;2.73;84.49
59417;BME280;45222;52.458;20.914;2023-01-16T09:30:54;99467.01;;;2.81;84.19
59417;BME280;45222;52.458;20.914;2023-01-16T09:34:42;99456.70;;;2.90;83.88
59417;BME280;45222;52.458;20.914;2023-01-16T09:38:30;99460.49;;;2.99;83.63
59417;BME280;45222;52.458;20.914;2023-01-16T09:42:35;99455.04;;;3.10;83.62
59417;BME280;45222;52.458;20.914;2023-01-16T09:46:46;99451.29;;;3.28;83.40
59417;BME280;45222;52.458;20.914;2023-01-16T09:50:40;99450.80;;;3.42;83.27
59417;BME280;45222;52.458;20.914;2023-01-16T09:54:35;99446.87;;;3.55;83.23
59417;BME280;45222;52.458;20.914;2023-01-16T09:58:57;99439.75;;;3.62;82.58
59417;BME280;45222;52.458;20.914;2023-01-16T10:02:47;99441.10;;;3.69;81.90
59417;BME280;45222;52.458;20.914;2023-01-16T10:06:39;99432.19;;;3.77;82.08
59417;BME280;45222;52.458;20.914;2023-01-16T10:10:43;99430.77;;;3.88;82.10
59417;BME280;45222;52.458;20.914;2023-01-16T10:14:40;99428.46;;;4.03;82.58
59417;BME280;45222;52.458;20.914;2023-01-16T10:18:35;99414.11;;;4.20;81.85
59417;BME280;45222;52.458;20.914;2023-01-16T10:22:36;99402.73;;;4.32;81.24
59417;BME280;45222;52.458;20.914;2023-01-16T10:26:29;99400.18;;;4.39;80.71
59417;BME280;45222;52.458;20.914;2023-01-16T10:30:21;99391.64;;;4.41;80.20
59417;BME280;45222;52.458;20.914;2023-01-16T10:34:15;99385.30;;;4.41;79.94
59417;BME280;45222;52.458;20.914;2023-01-16T10:38:19;99377.36;;;4.47;80.08
59417;BME280;45222;52.458;20.914;2023-01-16T10:42:14;99371.47;;;4.57;80.43
59417;BME280;45222;52.458;20.914;2023-01-16T10:46:22;99368.59;;;4.63;80.07
59417;BME280;45222;52.458;20.914;2023-01-16T10:50:28;99362.76;;;4.68;80.19
59417;BME280;45222;52.458;20.914;2023-01-16T10:54:17;99361.00;;;4.73;79.76
59417;BME280;45222;52.458;20.914;2023-01-16T10:58:12;99358.50;;;4.69;79.62
59417;BME280;45222;52.458;20.914;2023-01-16T11:02:16;99352.12;;;4.66;79.50
59417;BME280;45222;52.458;20.914;2023-01-16T11:06:12;99349.55;;;4.68;79.85
59417;BME280;45222;52.458;20.914;2023-01-16T11:10:01;99341.40;;;4.74;79.95
59417;BME280;45222;52.458;20.914;2023-01-16T11:13:49;99336.65;;;4.78;79.38
59417;BME280;45222;52.458;20.914;2023-01-16T11:17:55;99331.91;;;4.73;79.14
59417;BME280;45222;52.458;20.914;2023-01-16T11:22:01;99322.84;;;4.71;79.62
59417;BME280;45222;52.458;20.914;2023-01-16T11:25:54;99313.52;;;4.75;79.85
59417;BME280;45222;52.458;20.914;2023-01-16T11:29:44;99309.11;;;4.79;79.80
59417;BME280;45222;52.458;20.914;2023-01-16T11:33:37;99304.49;;;4.76;79.28
59417;BME280;45222;52.458;20.914;2023-01-16T11:37:28;99291.14;;;4.71;79.27
59417;BME280;45222;52.458;20.914;2023-01-16T11:41:20;99288.83;;;4.67;79.38
59417;BME280;45222;52.458;20.914;2023-01-16T11:45:15;99288.27;;;4.68;79.35
59417;BME280;45222;52.458;20.914;2023-01-16T11:49:26;99287.02;;;4.68;79.50
59417;BME280;45222;52.458;20.914;2023-01-16T11:53:15;99275.14;;;4.66;79.10
59417;BME280;45222;52.458;20.914;2023-01-16T11:57:26;99261.45;;;4.61;79.03
59417;BME280;45222;52.458;20.914;2023-01-16T12:01:21;99257.76;;;4.57;78.55
59417;BME280;45222;52.458;20.914;2023-01-16T12:05:18;99253.50;;;4.57;78.88
59417;BME280;45222;52.458;20.914;2023-01-16T12:09:37;99247.88;;;4.61;79.31
59417;BME280;45222;52.458;20.914;2023-01-16T12:13:33;99244.91;;;4.61;79.03
59417;BME280;45222;52.458;20.914;2023-01-16T12:17:51;99241.32;;;4.54;79.04
59417;BME280;45222;52.458;20.914;2023-01-16T12:21:45;99236.66;;;4.47;78.71
59417;BME280;45222;52.458;20.914;2023-01-16T12:25:41;99231.62;;;4.41;79.16
59417;BME280;45222;52.458;20.914;2023-01-16T12:29:42;99228.95;;;4.38;79.37
59417;BME280;45222;52.458;20.914;2023-01-16T12:33:48;99222.67;;;4.32;79.35
59417;BME280;45222;52.458;20.914;2023-01-16T12:37:58;99220.48;;;4.21;79.37
59417;BME280;45222;52.458;20.914;2023-01-16T12:41:57;99214.86;;;4.12;79.37
59417;BME280;45222;52.458;20.914;2023-01-16T12:46:11;99209.69;;;4.05;79.75
59417;BME280;45222;52.458;20.914;2023-01-16T12:50:15;99203.84;;;4.02;80.17
59417;BME280;45222;52.458;20.914;2023-01-16T12:54:34;99195.32;;;3.95;80.20
59417;BME280;45222;52.458;20.914;2023-01-16T12:58:29;99182.77;;;3.84;80.20
59417;BME280;45222;52.458;20.914;2023-01-16T13:02:23;99172.04;;;3.74;80.02
59417;BME280;45222;52.458;20.914;2023-01-16T13:06:19;99170.12;;;3.70;80.38
59417;BME280;45222;52.458;20.914;2023-01-16T13:10:15;99166.83;;;3.68;80.86
59417;BME280;45222;52.458;20.914;2023-01-16T13:14:23;99159.61;;;3.64;80.68
59417;BME280;45222;52.458;20.914;2023-01-16T13:18:17;99159.11;;;3.64;80.79
59417;BME280;45222;52.458;20.914;2023-01-16T13:22:10;99159.14;;;3.63;80.70
59417;BME280;45222;52.458;20.914;2023-01-16T13:26:05;99157.55;;;3.71;81.05
59417;BME280;45222;52.458;20.914;2023-01-16T13:29:59;99155.49;;;3.84;81.50
59417;BME280;45222;52.458;20.914;2023-01-16T13:33:51;99158.30;;;3.89;81.59
59417;BME280;45222;52.458;20.914;2023-01-16T13:37:56;99156.64;;;3.90;81.49
59417;BME280;45222;52.458;20.914;2023-01-16T13:41:48;99149.33;;;3.88;81.28
59417;BME280;45222;52.458;20.914;2023-01-16T13:45:38;99146.60;;;3.95;81.26
59417;BME280;45222;52.458;20.914;2023-01-16T13:49:37;99144.65;;;4.04;81.63
59417;BME280;45222;52.458;20.914;2023-01-16T13:53:26;99142.05;;;4.11;81.84
59417;BME280;45222;52.458;20.914;2023-01-16T13:57:17;99133.61;;;4.07;81.79
59417;BME280;45222;52.458;20.914;2023-01-16T14:01:07;99143.44;;;4.03;81.76
59417;BME280;45222;52.458;20.914;2023-01-16T14:05:24;99140.55;;;3.92;81.08
59417;BME280;45222;52.458;20.914;2023-01-16T14:09:21;99140.48;;;3.76;81.45
59417;BME280;45222;52.458;20.914;2023-01-16T14:13:23;99133.05;;;3.64;82.14
59417;BME280;45222;52.458;20.914;2023-01-16T14:17:13;99124.45;;;3.55;82.09
59417;BME280;45222;52.458;20.914;2023-01-16T14:21:05;99122.23;;;3.49;82.05
59417;BME280;45222;52.458;20.914;2023-01-16T14:24:58;99116.42;;;3.44;82.47
59417;BME280;45222;52.458;20.914;2023-01-16T14:28:49;99107.92;;;3.42;82.71
59417;BME280;45222;52.458;20.914;2023-01-16T14:32:46;99104.11;;;3.36;82.78
59417;BME280;45222;52.458;20.914;2023-01-16T14:36:35;99098.20;;;3.30;82.79
59417;BME280;45222;52.458;20.914;2023-01-16T14:40:22;99098.30;;;3.27;83.19
59417;BME280;45222;52.458;20.914;2023-01-16T14:44:33;99096.14;;;3.24;83.21
59417;BME280;45222;52.458;20.914;2023-01-16T14:48:51;99092.52;;;3.22;83.71
59417;BME280;45222;52.458;20.914;2023-01-16T14:53:12;99093.19;;;3.19;83.79
59417;BME280;45222;52.458;20.914;2023-01-16T14:57:20;99086.38;;;3.13;83.78
59417;BME280;45222;52.458;20.914;2023-01-16T15:01:16;99079.54;;;3.08;84.06
59417;BME280;45222;52.458;20.914;2023-01-16T15:05:28;99075.34;;;3.03;84.58
59417;BME280;45222;52.458;20.914;2023-01-16T15:09:38;99068.44;;;3.05;84.82
59417;BME280;45222;52.458;20.914;2023-01-16T15:13:30;99074.82;;;3.07;84.90
59417;BME280;45222;52.458;20.914;2023-01-16T15:17:40;99073.30;;;3.06;84.87
59417;BME280;45222;52.458;20.914;2023-01-16T15:21:48;99070.50;;;3.05;84.87
59417;BME280;45222;52.458;20.914;2023-01-16T15:26:10;99066.39;;;3.07;85.00
59417;BME280;45222;52.458;20.914;2023-01-16T15:30:04;99060.44;;;3.11;85.25
59417;BME280;45222;52.458;20.914;2023-01-16T15:34:02;99054.35;;;3.10;85.38
59417;BME280;45222;52.458;20.914;2023-01-16T15:37:51;99054.75;;;3.13;85.45
59417;BME280;45222;52.458;20.914;2023-01-16T15:41:40;99052.30;;;3.13;85.37
59417;BME280;45222;52.458;20.914;2023-01-16T15:45:53;99045.20;;;3.06;84.89
59417;BME280;45222;52.458;20.914;2023-01-16T15:50:11;99037.41;;;2.89;84.78
59417;BME280;45222;52.458;20.914;2023-01-16T15:54:01;99037.77;;;2.74;84.74
59417;BME280;45222;52.458;20.914;2023-01-16T15:57:51;99032.30;;;2.61;84.86
59417;BME280;45222;52.458;20.914;2023-01-16T16:01:40;99024.58;;;2.52;85.14
59417;BME280;45222;52.458;20.914;2023-01-16T16:05:29;99015.63;;;2.42;85.27
59417;BME280;45222;52.458;20.914;2023-01-16T16:09:20;99009.19;;;2.31;85.65
59417;BME280;45222;52.458;20.914;2023-01-16T16:13:14;99011.59;;;2.23;85.58
59417;BME280;45222;52.458;20.914;2023-01-16T16:17:15;99001.67;;;2.11;85.54
59417;BME280;45222;52.458;20.914;2023-01-16T16:21:22;98991.92;;;1.99;85.82
59417;BME280;45222;52.458;20.914;2023-01-16T16:25:20;98990.15;;;1.85;86.21
59417;BME280;45222;52.458;20.914;2023-01-16T16:29:18;98980.22;;;1.78;86.42
59417;BME280;45222;52.458;20.914;2023-01-16T16:33:16;98976.97;;;1.71;86.79
59417;BME280;45222;52.458;20.914;2023-01-16T16:37:05;98971.02;;;1.65;86.79
59417;BME280;45222;52.458;20.914;2023-01-16T16:45:41;98961.87;;;1.46;86.93
59417;BME280;45222;52.458;20.914;2023-01-16T16:49:31;98963.59;;;1.37;87.03
59417;BME280;45222;52.458;20.914;2023-01-16T16:53:25;98963.83;;;1.34;87.42
59417;BME280;45222;52.458;20.914;2023-01-16T16:57:13;98956.28;;;1.29;87.51
59417;BME280;45222;52.458;20.914;2023-01-16T17:01:01;98955.48;;;1.27;87.47
59417;BME280;45222;52.458;20.914;2023-01-16T17:04:49;98950.23;;;1.27;87.36
59417;BME280;45222;52.458;20.914;2023-01-16T17:08:38;98940.30;;;1.30;87.45
59417;BME280;45222;52.458;20.914;2023-01-16T17:12:26;98933.77;;;1.38;87.86
59417;BME280;45222;52.458;20.914;2023-01-16T17:16:17;98928.72;;;1.47;88.19
59417;BME280;45222;52.458;20.914;2023-01-16T17:20:11;98919.90;;;1.64;88.18
59417;BME280;45222;52.458;20.914;2023-01-16T17:23:59;98911.04;;;1.77;88.10
59417;BME280;45222;52.458;20.914;2023-01-16T17:27:48;98905.05;;;1.82;87.80
59417;BME280;45222;52.458;20.914;2023-01-16T17:31:39;98900.52;;;1.82;87.80
59417;BME280;45222;52.458;20.914;2023-01-16T17:35:28;98901.92;;;1.82;87.50
59417;BME280;45222;52.458;20.914;2023-01-16T17:39:16;98893.95;;;1.79;87.68
59417;BME280;45222;52.458;20.914;2023-01-16T17:43:03;98883.05;;;1.85;87.67
59417;BME280;45222;52.458;20.914;2023-01-16T17:47:10;98875.05;;;1.87;87.90
59417;BME280;45222;52.458;20.914;2023-01-16T17:50:59;98867.84;;;1.88;88.11
59417;BME280;45222;52.458;20.914;2023-01-16T17:54:47;98864.23;;;1.86;88.13
59417;BME280;45222;52.458;20.914;2023-01-16T17:58:57;98856.05;;;1.90;87.98
59417;BME280;45222;52.458;20.914;2023-01-16T18:02:52;98846.45;;;1.93;87.88
59417;BME280;45222;52.458;20.914;2023-01-16T18:06:41;98837.04;;;2.01;88.04
59417;BME280;45222;52.458;20.914;2023-01-16T18:10:29;98831.80;;;2.05;88.18
59417;BME280;45222;52.458;20.914;2023-01-16T18:14:17;98827.14;;;2.17;88.05
59417;BME280;45222;52.458;20.914;2023-01-16T18:18:23;98822.12;;;2.24;87.92
59417;BME280;45222;52.458;20.914;2023-01-16T18:22:11;98822.55;;;2.27;87.85
59417;BME280;45222;52.458;20.914;2023-01-16T18:25:58;98817.52;;;2.30;87.70
59417;BME280;45222;52.458;20.914;2023-01-16T18:29:47;98816.59;;;2.31;87.67
59417;BME280;45222;52.458;20.914;2023-01-16T18:33:35;98810.27;;;2.31;87.70
59417;BME280;45222;52.458;20.914;2023-01-16T18:37:24;98797.58;;;2.37;87.94
59417;BME280;45222;52.458;20.914;2023-01-16T18:41:12;98787.17;;;2.43;88.01
59417;BME280;45222;52.458;20.914;2023-01-16T18:45:18;98784.98;;;2.45;87.67
59417;BME280;45222;52.458;20.914;2023-01-16T18:49:23;98779.74;;;2.44;87.51
59417;BME280;45222;52.458;20.914;2023-01-16T18:53:31;98774.54;;;2.47;87.52
59417;BME280;45222;52.458;20.914;2023-01-16T18:57:37;98769.01;;;2.49;87.55
59417;BME280;45222;52.458;20.914;2023-01-16T19:01:43;98755.92;;;2.56;87.69
59417;BME280;45222;52.458;20.914;2023-01-16T19:05:45;98753.58;;;2.58;87.69
59417;BME280;45222;52.458;20.914;2023-01-16T19:09:34;98748.56;;;2.60;87.65
59417;BME280;45222;52.458;20.914;2023-01-16T19:13:24;98745.83;;;2.58;87.63
59417;BME280;45222;52.458;20.914;2023-01-16T19:17:23;98737.94;;;2.58;87.76
59417;BME280;45222;52.458;20.914;2023-01-16T19:21:11;98724.20;;;2.63;88.01
59417;BME280;45222;52.458;20.914;2023-01-16T19:24:59;98715.94;;;2.72;88.25
59417;BME280;45222;52.458;20.914;2023-01-16T19:28:48;98710.93;;;2.78;88.17
59417;BME280;45222;52.458;20.914;2023-01-16T19:32:37;98708.55;;;2.80;88.09
59417;BME280;45222;52.458;20.914;2023-01-16T19:36:26;98702.88;;;2.82;88.05
59417;BME280;45222;52.458;20.914;2023-01-16T19:40:15;98693.94;;;2.86;88.02
59417;BME280;45222;52.458;20.914;2023-01-16T19:44:02;98682.47;;;2.87;88.12
59417;BME280;45222;52.458;20.914;2023-01-16T19:48:07;98671.02;;;2.88;88.50
59417;BME280;45222;52.458;20.914;2023-01-16T19:51:56;98665.02;;;2.96;88.34
59417;BME280;45222;52.458;20.914;2023-01-16T19:55:44;98657.50;;;3.00;88.26
59417;BME280;45222;52.458;20.914;2023-01-16T19:59:32;98649.38;;;3.01;88.10
59417;BME280;45222;52.458;20.914;2023-01-16T20:03:20;98636.73;;;3.01;88.10
59417;BME280;45222;52.458;20.914;2023-01-16T20:07:09;98633.27;;;3.04;88.21
59417;BME280;45222;52.458;20.914;2023-01-16T20:10:58;98628.91;;;3.07;88.21
59417;BME280;45222;52.458;20.914;2023-01-16T20:14:46;98620.33;;;3.10;88.27
59417;BME280;45222;52.458;20.914;2023-01-16T20:18:35;98606.01;;;3.16;88.38
59417;BME280;45222;52.458;20.914;2023-01-16T20:22:21;98600.15;;;3.17;88.28
59417;BME280;45222;52.458;20.914;2023-01-16T20:26:09;98596.77;;;3.14;88.26
59417;BME280;45222;52.458;20.914;2023-01-16T20:29:57;98582.45;;;3.13;87.99
59417;BME280;45222;52.458;20.914;2023-01-16T20:33:45;98571.70;;;3.13;88.03
59417;BME280;45222;52.458;20.914;2023-01-16T20:37:33;98558.04;;;3.16;88.04
59417;BME280;45222;52.458;20.914;2023-01-16T20:41:21;98552.64;;;3.19;88.23
59417;BME280;45222;52.458;20.914;2023-01-16T20:45:27;98544.33;;;3.20;88.22